Wetterdaten: Woche 03.12.12 - 09.12.12 (KW49)
Datum Zeit Temp. A. Feuchte A. Luftdruck Regen Wind Richtung Taupunkt Windchill Windben
03.12.2012 00:00 1,7 C 77 % 1010,5 hPa 0,0 l/m 12,9 km/h N -2,0 C -3,6 C 26,9 km/h
03.12.2012 01:00 1,8 C 76 % 1010,2 hPa 0,0 l/m 13,5 km/h N -2,0 C -3,9 C 32,6 km/h
03.12.2012 02:00 1,9 C 75 % 1010,4 hPa 0,0 l/m 14,4 km/h N -2,0 C -4,4 C 31,0 km/h
03.12.2012 03:00 1,9 C 76 % 1010,3 hPa 0,0 l/m 17,0 km/h N -1,9 C -5,7 C 34,6 km/h
03.12.2012 04:00 2,0 C 76 % 1010,5 hPa 0,0 l/m 15,9 km/h N -1,7 C -5,1 C 33,4 km/h
03.12.2012 05:00 1,9 C 77 % 1010,7 hPa 0,0 l/m 14,9 km/h N -1,7 C -4,6 C 30,6 km/h
03.12.2012 06:00 1,8 C 80 % 1011,1 hPa 0,0 l/m 14,9 km/h N -1,4 C -4,7 C 34,2 km/h
03.12.2012 07:00 1,9 C 80 % 1011,5 hPa 0,0 l/m 14,4 km/h N -1,2 C -4,3 C 30,2 km/h
03.12.2012 08:00 2,1 C 79 % 1012,3 hPa 0,0 l/m 13,6 km/h N -1,2 C -3,6 C 31,0 km/h
03.12.2012 09:00 2,3 C 79 % 1012,8 hPa 0,0 l/m 12,1 km/h N -1,0 C -2,4 C 27,8 km/h
03.12.2012 10:00 2,6 C 77 % 1013,1 hPa 0,0 l/m 12,5 km/h N -1,0 C -2,3 C 29,8 km/h
03.12.2012 11:00 3,4 C 67 % 1013,0 hPa 0,0 l/m 14,1 km/h N -2,1 C -2,4 C 31,8 km/h
03.12.2012 12:00 3,8 C 64 % 1012,9 hPa 0,0 l/m 14,9 km/h N -2,3 C -2,3 C 31,8 km/h
03.12.2012 13:00 3,7 C 65 % 1012,8 hPa 0,0 l/m 14,6 km/h N -2,3 C -2,2 C 31,4 km/h
03.12.2012 14:00 3,6 C 65 % 1012,5 hPa 0,0 l/m 12,8 km/h N -2,3 C -1,4 C 29,0 km/h
03.12.2012 15:00 2,9 C 66 % 1012,8 hPa 0,0 l/m 13,7 km/h N -2,9 C -2,7 C 31,0 km/h
03.12.2012 16:00 2,0 C 73 % 1013,2 hPa 0,0 l/m 10,5 km/h N -2,4 C -1,6 C 23,7 km/h
03.12.2012 17:00 1,6 C 79 % 1013,4 hPa 0,0 l/m 11,9 km/h N -1,7 C -3,0 C 28,6 km/h
03.12.2012 18:00 1,4 C 77 % 1013,5 hPa 0,0 l/m 10,7 km/h N -2,2 C -2,3 C 25,8 km/h
03.12.2012 19:00 1,3 C 73 % 1013,4 hPa 0,0 l/m 6,8 km/h N -3,0 C 0,1 C 18,5 km/h
03.12.2012 20:00 0,7 C 73 % 1013,4 hPa 0,0 l/m 2,2 km/h N -3,6 C 0,7 C 8,1 km/h
03.12.2012 21:00 -0,9 C 74 % 1013,0 hPa 0,0 l/m 0,0 km/h N -5,0 C -0,9 C 0,4 km/h
03.12.2012 22:00 -2,6 C 79 % 1012,3 hPa 0,0 l/m 0,1 km/h N -5,7 C -2,6 C 1,6 km/h
03.12.2012 23:00 -3,2 C 82 % 1011,4 hPa 0,0 l/m 0,0 km/h N -5,9 C -3,2 C 0,0 km/h
04.12.2012 00:00 -2,8 C 84 % 1010,4 hPa 0,0 l/m 0,0 km/h N -5,1 C -2,8 C 1,2 km/h
04.12.2012 01:00 -0,7 C 78 % 1008,9 hPa 0,0 l/m 3,3 km/h N -4,2 C -0,7 C 12,5 km/h
04.12.2012 02:00 0,1 C 71 % 1007,8 hPa 0,0 l/m 2,8 km/h N -4,6 C 0,1 C 9,3 km/h
04.12.2012 03:00 -0,2 C 73 % 1006,8 hPa 0,0 l/m 1,0 km/h N -4,5 C -0,2 C 5,6 km/h
04.12.2012 04:00 -0,1 C 76 % 1006,1 hPa 0,0 l/m 0,2 km/h N -3,9 C -0,1 C 2,8 km/h
04.12.2012 05:00 -0,2 C 80 % 1005,3 hPa 0,0 l/m 0,0 km/h N -3,2 C -0,2 C 0,8 km/h
04.12.2012 06:00 -0,1 C 81 % 1004,8 hPa 0,0 l/m 0,0 km/h N -2,9 C -0,1 C 0,8 km/h
04.12.2012 07:00 0,3 C 82 % 1004,3 hPa 0,0 l/m 0,0 km/h N -2,5 C 0,3 C 0,0 km/h
04.12.2012 08:00 0,5 C 81 % 1004,1 hPa 0,0 l/m 0,2 km/h N -2,3 C 0,5 C 2,4 km/h
04.12.2012 09:00 1,2 C 80 % 1003,7 hPa 0,0 l/m 1,3 km/h N -1,8 C 1,2 C 6,8 km/h
04.12.2012 10:00 1,7 C 77 % 1003,1 hPa 0,0 l/m 3,3 km/h N -1,9 C 1,7 C 9,3 km/h
04.12.2012 11:00 2,1 C 75 % 1002,5 hPa 0,0 l/m 4,8 km/h N -1,9 C 2,1 C 13,3 km/h
04.12.2012 12:00 2,0 C 74 % 1001,9 hPa 0,0 l/m 5,1 km/h N -2,0 C 2,0 C 13,7 km/h
04.12.2012 13:00 1,7 C 81 % 1001,3 hPa 0,0 l/m 4,8 km/h N -1,2 C 1,7 C 12,9 km/h
04.12.2012 14:00 1,7 C 84 % 1000,5 hPa 0,3 l/m 3,7 km/h N -0,8 C 1,7 C 12,1 km/h
04.12.2012 15:00 1,8 C 84 % 1000,3 hPa 0,0 l/m 2,6 km/h N -0,6 C 1,8 C 8,8 km/h
04.12.2012 16:00 1,8 C 85 % 1000,3 hPa 0,3 l/m 1,5 km/h N -0,5 C 1,8 C 6,8 km/h
04.12.2012 17:00 1,8 C 85 % 999,9 hPa 0,0 l/m 1,5 km/h N -0,5 C 1,8 C 7,6 km/h
04.12.2012 18:00 4,7 C 79 % 999,6 hPa 0,0 l/m 9,0 km/h N 1,4 C 2,5 C 31,4 km/h
04.12.2012 19:00 5,2 C 72 % 999,9 hPa 0,0 l/m 14,3 km/h N 0,6 C -0,3 C 37,4 km/h
04.12.2012 20:00 4,5 C 75 % 1000,0 hPa 0,0 l/m 16,5 km/h N 0,5 C -2,3 C 35,8 km/h
04.12.2012 21:00 4,3 C 74 % 1000,3 hPa 0,0 l/m 16,5 km/h N 0,1 C -2,5 C 31,8 km/h
04.12.2012 22:00 4,1 C 72 % 1000,5 hPa 0,0 l/m 12,6 km/h N -0,5 C -0,6 C 29,8 km/h
04.12.2012 23:00 3,9 C 69 % 1000,8 hPa 0,0 l/m 14,5 km/h N -1,3 C -2,0 C 33,0 km/h
05.12.2012 00:00 3,7 C 66 % 1000,4 hPa 0,0 l/m 9,3 km/h N -2,0 C 1,3 C 28,2 km/h
05.12.2012 01:00 3,7 C 67 % 1000,3 hPa 0,0 l/m 9,8 km/h N -1,9 C 0,8 C 23,7 km/h
05.12.2012 02:00 3,6 C 69 % 1000,2 hPa 0,0 l/m 9,1 km/h N -1,6 C 1,4 C 27,8 km/h
05.12.2012 03:00 4,0 C 68 % 999,2 hPa 0,0 l/m 15,1 km/h N -1,4 C -2,2 C 33,4 km/h
05.12.2012 04:00 3,9 C 69 % 999,2 hPa 0,0 l/m 15,4 km/h N -1,2 C -2,4 C 33,8 km/h
05.12.2012 05:00 3,9 C 70 % 999,2 hPa 0,0 l/m 13,5 km/h N -1,0 C -1,3 C 29,8 km/h
05.12.2012 06:00 3,8 C 71 % 999,3 hPa 0,0 l/m 10,3 km/h N -1,0 C 0,5 C 24,1 km/h
05.12.2012 07:00 3,6 C 73 % 999,7 hPa 0,0 l/m 10,8 km/h N -0,8 C -0,1 C 27,4 km/h
05.12.2012 08:00 3,8 C 72 % 1000,6 hPa 0,0 l/m 7,5 km/h N -0,8 C 2,7 C 21,7 km/h
05.12.2012 09:00 4,3 C 71 % 1001,2 hPa 0,0 l/m 6,5 km/h N -0,4 C 3,8 C 21,7 km/h
05.12.2012 10:00 4,7 C 72 % 1001,5 hPa 0,0 l/m 6,1 km/h N -0,0 C 4,2 C 18,1 km/h
05.12.2012 11:00 4,5 C 73 % 1001,7 hPa 0,0 l/m 10,6 km/h N 0,1 C 1,1 C 23,7 km/h
05.12.2012 12:00 5,1 C 67 % 1001,7 hPa 0,0 l/m 8,7 km/h N -0,6 C 3,2 C 24,1 km/h
05.12.2012 13:00 5,3 C 67 % 1002,0 hPa 0,0 l/m 8,7 km/h N -0,4 C 3,5 C 20,5 km/h
05.12.2012 14:00 4,8 C 71 % 1002,2 hPa 0,0 l/m 8,3 km/h N -0,1 C 3,2 C 22,9 km/h
05.12.2012 15:00 4,3 C 73 % 1002,7 hPa 0,0 l/m 7,9 km/h N -0,1 C 3,0 C 20,5 km/h
05.12.2012 16:00 3,8 C 76 % 1002,9 hPa 0,0 l/m 9,2 km/h N -0,1 C 1,4 C 26,5 km/h
05.12.2012 17:00 3,0 C 80 % 1003,8 hPa 0,0 l/m 7,8 km/h N -0,2 C 1,2 C 20,1 km/h
05.12.2012 18:00 2,2 C 83 % 1004,5 hPa 0,0 l/m 3,5 km/h N -0,4 C 2,2 C 10,5 km/h
05.12.2012 19:00 1,9 C 83 % 1004,9 hPa 0,0 l/m 0,2 km/h N -0,8 C 1,9 C 2,4 km/h
05.12.2012 20:00 1,9 C 84 % 1005,3 hPa 0,0 l/m 0,0 km/h N -0,6 C 1,9 C 0,8 km/h
05.12.2012 21:00 2,1 C 84 % 1005,7 hPa 0,0 l/m 2,7 km/h N -0,4 C 2,1 C 10,1 km/h
05.12.2012 22:00 2,7 C 78 % 1005,9 hPa 0,0 l/m 4,4 km/h N -0,7 C 2,7 C 15,3 km/h
05.12.2012 23:00 2,5 C 75 % 1006,2 hPa 0,0 l/m 1,3 km/h N -1,5 C 2,5 C 5,6 km/h
06.12.2012 00:00 0,9 C 77 % 1006,3 hPa 0,0 l/m 0,0 km/h N -2,7 C 0,9 C 0,8 km/h
06.12.2012 01:00 0,1 C 82 % 1006,6 hPa 0,0 l/m 0,0 km/h N -2,7 C 0,1 C 2,8 km/h
06.12.2012 02:00 1,0 C 82 % 1006,7 hPa 0,0 l/m 2,3 km/h N -1,7 C 1,0 C 7,6 km/h
06.12.2012 03:00 1,3 C 82 % 1006,8 hPa 0,0 l/m 0,9 km/h N -1,4 C 1,3 C 6,4 km/h
06.12.2012 04:00 0,8 C 82 % 1007,0 hPa 0,0 l/m 0,3 km/h N -1,9 C 0,8 C 3,6 km/h
06.12.2012 05:00 -0,3 C 83 % 1007,2 hPa 0,0 l/m 0,0 km/h N -2,8 C -0,3 C 0,0 km/h
06.12.2012 06:00 -1,5 C 84 % 1007,4 hPa 0,0 l/m 0,0 km/h N -3,9 C -1,5 C 0,0 km/h
06.12.2012 07:00 -2,4 C 85 % 1007,8 hPa 0,0 l/m 0,0 km/h N -4,6 C -2,4 C 0,0 km/h
06.12.2012 08:00 -2,0 C 85 % 1008,1 hPa 0,0 l/m 0,0 km/h N -4,1 C -2,0 C 0,4 km/h
06.12.2012 09:00 0,1 C 84 % 1008,4 hPa 0,0 l/m 0,0 km/h N -2,3 C 0,1 C 0,4 km/h
06.12.2012 10:00 0,8 C 84 % 1008,7 hPa 0,0 l/m 0,1 km/h N -1,6 C 0,8 C 1,2 km/h
06.12.2012 11:00 1,6 C 85 % 1008,8 hPa 0,0 l/m 0,3 km/h N -0,7 C 1,6 C 3,2 km/h
06.12.2012 12:00 3,6 C 77 % 1009,0 hPa 0,0 l/m 6,2 km/h N -0,1 C 2,7 C 21,3 km/h
06.12.2012 13:00 3,8 C 66 % 1009,5 hPa 0,0 l/m 10,9 km/h N -1,9 C 0,2 C 32,2 km/h
06.12.2012 14:00 3,4 C 62 % 1010,0 hPa 0,0 l/m 10,2 km/h N -3,1 C 0,3 C 30,2 km/h
06.12.2012 15:00 2,2 C 67 % 1011,6 hPa 0,0 l/m 10,9 km/h N -3,3 C -1,7 C 28,2 km/h
06.12.2012 16:00 1,0 C 71 % 1012,7 hPa 0,0 l/m 8,5 km/h N -3,7 C -1,0 C 21,7 km/h
06.12.2012 17:00 0,5 C 66 % 1013,5 hPa 0,0 l/m 9,7 km/h N -5,1 C -2,6 C 25,3 km/h
06.12.2012 18:00 0,0 C 66 % 1014,4 hPa 0,0 l/m 11,5 km/h N -5,6 C -4,6 C 26,9 km/h
06.12.2012 19:00 -0,5 C 68 % 1015,0 hPa 0,0 l/m 10,5 km/h N -5,7 C -4,4 C 26,1 km/h
06.12.2012 20:00 -0,6 C 68 % 1015,3 hPa 0,0 l/m 8,0 km/h N -5,8 C -2,2 C 24,1 km/h
06.12.2012 21:00 -0,9 C 71 % 1015,7 hPa 0,0 l/m 7,5 km/h N -5,5 C -2,8 C 22,5 km/h
06.12.2012 22:00 -0,7 C 68 % 1015,7 hPa 0,0 l/m 12,1 km/h N -5,8 C -5,8 C 31,0 km/h
06.12.2012 23:00 -0,8 C 70 % 1015,9 hPa 0,0 l/m 13,1 km/h N -5,6 C -6,6 C 28,6 km/h
07.12.2012 00:00 -0,8 C 70 % 1015,9 hPa 0,0 l/m 12,6 km/h N -5,6 C -6,4 C 29,4 km/h
07.12.2012 01:00 -2,3 C 83 % 1016,2 hPa 0,0 l/m 13,6 km/h N -4,8 C -8,8 C 31,0 km/h
07.12.2012 02:00 -2,3 C 81 % 1016,6 hPa 0,0 l/m 9,8 km/h N -5,1 C -5,6 C 22,9 km/h
07.12.2012 03:00 -2,0 C 79 % 1016,5 hPa 0,0 l/m 4,6 km/h N -5,2 C -2,0 C 13,3 km/h
07.12.2012 04:00 -2,5 C 77 % 1016,3 hPa 0,0 l/m 2,8 km/h N -6,0 C -2,5 C 10,4 km/h
07.12.2012 05:00 -2,3 C 76 % 1016,1 hPa 0,0 l/m 3,9 km/h N -6,0 C -2,3 C 14,5 km/h
07.12.2012 06:00 -2,3 C 74 % 1016,3 hPa 0,0 l/m 3,2 km/h N -6,3 C -2,3 C 14,1 km/h
07.12.2012 07:00 -2,5 C 74 % 1016,3 hPa 0,0 l/m 1,2 km/h N -6,5 C -2,5 C 6,8 km/h
07.12.2012 08:00 -2,4 C 75 % 1016,2 hPa 0,0 l/m 0,3 km/h N -6,3 C -2,4 C 1,6 km/h
07.12.2012 09:00 -1,1 C 73 % 1015,7 hPa 0,0 l/m 0,1 km/h N -5,4 C -1,1 C 2,0 km/h
07.12.2012 10:00 1,0 C 61 % 1015,0 hPa 0,0 l/m 2,3 km/h N -5,6 C 1,0 C 8,9 km/h
07.12.2012 11:00 0,9 C 56 % 1014,0 hPa 0,0 l/m 3,5 km/h N -6,9 C 0,9 C 9,7 km/h
07.12.2012 12:00 1,0 C 54 % 1013,0 hPa 0,0 l/m 4,4 km/h N -7,2 C 1,0 C 13,7 km/h
07.12.2012 13:00 0,7 C 59 % 1012,1 hPa 0,0 l/m 1,3 km/h N -6,5 C 0,7 C 6,8 km/h
07.12.2012 14:00 0,2 C 66 % 1011,3 hPa 0,0 l/m 0,6 km/h N -5,4 C 0,2 C 6,4 km/h
07.12.2012 15:00 -0,4 C 70 % 1010,7 hPa 0,0 l/m 0,2 km/h N -5,2 C -0,4 C 4,0 km/h
07.12.2012 16:00 -1,7 C 75 % 1010,4 hPa 0,0 l/m 0,2 km/h N -5,5 C -1,7 C 2,8 km/h
07.12.2012 17:00 -2,5 C 80 % 1010,2 hPa 0,0 l/m 0,1 km/h N -5,4 C -2,5 C 3,2 km/h
07.12.2012 18:00 -3,0 C 83 % 1010,1 hPa 0,0 l/m 0,3 km/h N -5,4 C -3,0 C 2,8 km/h
07.12.2012 19:00 -3,3 C 84 % 1010,2 hPa 0,0 l/m 0,1 km/h N -5,7 C -3,3 C 2,4 km/h
07.12.2012 20:00 -3,3 C 85 % 1010,3 hPa 0,0 l/m 0,6 km/h N -5,5 C -3,3 C 6,0 km/h
07.12.2012 21:00 -2,6 C 84 % 1010,3 hPa 0,0 l/m 2,1 km/h N -5,0 C -2,6 C 10,9 km/h
07.12.2012 22:00 -2,3 C 81 % 1010,7 hPa 0,0 l/m 2,0 km/h N -5,1 C -2,3 C 10,1 km/h
07.12.2012 23:00 -2,3 C 80 % 1011,2 hPa 0,0 l/m 1,5 km/h N -5,3 C -2,3 C 10,1 km/h
08.12.2012 00:00 -2,4 C 80 % 1011,5 hPa 0,0 l/m 2,3 km/h N -5,3 C -2,4 C 9,6 km/h
08.12.2012 01:00 -2,9 C 83 % 1012,3 hPa 0,0 l/m 1,7 km/h N -5,4 C -2,9 C 9,2 km/h
08.12.2012 02:00 -3,3 C 85 % 1012,8 hPa 0,0 l/m 1,2 km/h N -5,5 C -3,3 C 8,8 km/h
08.12.2012 03:00 -3,7 C 86 % 1013,3 hPa 0,0 l/m 0,8 km/h N -5,7 C -3,7 C 6,4 km/h
08.12.2012 04:00 -4,2 C 86 % 1013,8 hPa 0,0 l/m 0,5 km/h N -6,1 C -4,2 C 6,0 km/h
08.12.2012 05:00 -4,4 C 86 % 1014,0 hPa 0,0 l/m 0,1 km/h N -6,4 C -4,4 C 2,8 km/h
08.12.2012 06:00 -4,7 C 86 % 1014,4 hPa 0,0 l/m 0,2 km/h N -6,7 C -4,7 C 2,8 km/h
08.12.2012 07:00 -4,9 C 86 % 1015,5 hPa 0,0 l/m 0,0 km/h N -6,9 C -4,9 C 0,8 km/h
08.12.2012 08:00 -5,0 C 85 % 1016,6 hPa 0,0 l/m 0,1 km/h N -7,1 C -5,0 C 1,2 km/h
08.12.2012 09:00 -4,5 C 83 % 1017,5 hPa 0,0 l/m 1,7 km/h N -6,9 C -4,5 C 6,8 km/h
08.12.2012 10:00 -3,7 C 79 % 1018,0 hPa 0,0 l/m 4,1 km/h N -6,8 C -3,7 C 11,3 km/h
08.12.2012 11:00 -2,9 C 75 % 1018,3 hPa 0,0 l/m 4,5 km/h N -6,7 C -2,9 C 11,3 km/h
08.12.2012 12:00 -2,4 C 72 % 1017,9 hPa 0,3 l/m 7,6 km/h N -6,7 C -3,7 C 17,7 km/h
08.12.2012 13:00 -2,6 C 72 % 1018,2 hPa 0,0 l/m 8,9 km/h N -6,9 C -5,3 C 21,7 km/h
08.12.2012 14:00 -2,8 C 73 % 1018,3 hPa 0,0 l/m 9,9 km/h N -6,9 C -6,4 C 23,3 km/h
08.12.2012 15:00 -2,7 C 73 % 1019,2 hPa 0,0 l/m 8,1 km/h N -6,9 C -4,5 C 20,1 km/h
08.12.2012 16:00 -2,8 C 73 % 1020,0 hPa 0,0 l/m 7,1 km/h N -6,9 C -3,6 C 17,3 km/h
08.12.2012 17:00 -2,8 C 73 % 1020,8 hPa 0,0 l/m 8,6 km/h N -7,0 C -5,0 C 21,3 km/h
08.12.2012 18:00 -2,8 C 73 % 1021,7 hPa 0,0 l/m 9,1 km/h N -6,9 C -5,7 C 20,9 km/h
08.12.2012 19:00 -3,0 C 73 % 1022,4 hPa 0,0 l/m 11,0 km/h N -7,1 C -7,4 C 22,1 km/h
08.12.2012 20:00 -3,1 C 74 % 1022,7 hPa 0,0 l/m 12,7 km/h N -7,1 C -9,1 C 24,5 km/h
08.12.2012 21:00 -3,1 C 73 % 1023,2 hPa 0,0 l/m 13,5 km/h N -7,2 C -9,7 C 29,0 km/h
08.12.2012 22:00 -3,4 C 73 % 1023,6 hPa 0,0 l/m 11,0 km/h N -7,6 C -7,8 C 26,6 km/h
08.12.2012 23:00 -3,7 C 75 % 1023,3 hPa 0,0 l/m 9,8 km/h N -7,4 C -7,3 C 24,5 km/h
09.12.2012 00:00 -3,5 C 75 % 1023,1 hPa 0,0 l/m 10,3 km/h N -7,4 C -7,6 C 22,9 km/h
09.12.2012 01:00 -3,5 C 76 % 1023,3 hPa 0,0 l/m 10,6 km/h N -7,2 C -7,8 C 23,7 km/h
09.12.2012 02:00 -3,3 C 73 % 1022,8 hPa 0,0 l/m 9,9 km/h N -7,5 C -6,8 C 24,1 km/h
09.12.2012 03:00 -2,7 C 67 % 1022,0 hPa 0,0 l/m 17,8 km/h N -7,9 C -11,8 C 38,6 km/h
09.12.2012 04:00 -2,7 C 66 % 1022,1 hPa 0,0 l/m 15,3 km/h N -8,1 C -10,4 C 31,4 km/h
09.12.2012 05:00 -2,6 C 66 % 1021,9 hPa 0,0 l/m 20,2 km/h N -8,1 C -13,1 C 39,4 km/h
09.12.2012 06:00 -2,7 C 65 % 1022,2 hPa 0,0 l/m 18,8 km/h N -8,3 C -12,5 C 37,4 km/h
09.12.2012 07:00 -2,9 C 66 % 1022,5 hPa 0,0 l/m 14,1 km/h N -8,5 C -9,8 C 33,0 km/h
09.12.2012 08:00 -3,0 C 67 % 1022,2 hPa 0,0 l/m 16,1 km/h N -8,3 C -11,4 C 33,0 km/h
09.12.2012 09:00 -2,5 C 67 % 1022,1 hPa 0,0 l/m 15,9 km/h N -7,9 C -10,6 C 37,8 km/h
09.12.2012 10:00 -1,8 C 64 % 1021,8 hPa 0,0 l/m 14,3 km/h N -7,7 C -8,6 C 31,4 km/h
09.12.2012 11:00 -0,9 C 60 % 1020,9 hPa 0,0 l/m 13,4 km/h N -7,6 C -7,0 C 30,2 km/h
09.12.2012 12:00 -0,6 C 60 % 1019,6 hPa 0,0 l/m 21,8 km/h N -7,4 C -11,1 C 41,5 km/h
09.12.2012 13:00 -0,4 C 60 % 1018,4 hPa 0,0 l/m 25,5 km/h N -7,3 C -12,3 C 48,3 km/h
09.12.2012 14:00 0,0 C 58 % 1017,7 hPa 0,0 l/m 20,2 km/h N -7,3 C -9,6 C 41,0 km/h
09.12.2012 15:00 -0,3 C 58 % 1017,3 hPa 0,0 l/m 12,8 km/h N -7,5 C -5,7 C 31,4 km/h
09.12.2012 16:00 -0,4 C 55 % 1016,3 hPa 0,0 l/m 7,5 km/h N -8,4 C -1,5 C 21,7 km/h
09.12.2012 17:00 -0,2 C 52 % 1015,5 hPa 0,0 l/m 4,1 km/h N -8,9 C -0,2 C 16,9 km/h
09.12.2012 18:00 -0,7 C 55 % 1014,8 hPa 0,0 l/m 3,1 km/h N -8,7 C -0,7 C 15,3 km/h
09.12.2012 19:00 1,0 C 50 % 1014,0 hPa 0,0 l/m 9,5 km/h N -8,3 C -1,8 C 26,9 km/h
09.12.2012 20:00 0,9 C 62 % 1013,4 hPa 0,0 l/m 12,6 km/h N -5,6 C -4,2 C 31,8 km/h
09.12.2012 21:00 -0,2 C 77 % 1013,1 hPa 0,0 l/m 2,1 km/h N -3,8 C -0,3 C 6,4 km/h
09.12.2012 22:00 -0,8 C 77 % 1012,6 hPa 0,0 l/m 0,9 km/h N -4,4 C -0,8 C 4,8 km/h
09.12.2012 23:00 -0,2 C 75 % 1011,9 hPa 0,0 l/m 3,3 km/h N -4,1 C -0,2 C 12,9 km/h
Min-Datum _ 08.12.12 09.12.12 05.12.12 - 03.12.12 - 09.12.12 09.12.12 03.12.12
_ Min-Zeit 07:45 19:00 05:15 - 20:45 - 17:45 05:15 20:45
Minimum _ -5,1 C 49 % 999,0 hPa - 0,0 km/h - -9,2 C -14,4 C 0,0 km/h
Max-Datum _ 05.12.12 06.12.12 08.12.12 04.12.12 09.12.12 - 04.12.12 05.12.12 09.12.12
_ Max-Zeit 13:00 08:00 22:45 14:15 13:45 - 18:15 13:45 13:00
Maximum _ 5,5 C 86 % 1023,7 hPa 0,3 l/m 27,2 km/h
N
- 2,1 C 5,0 C 51,5 km/h
N
Durchschnitt _ 0,1 C 74 % 1011,1 hPa #0,8 l/m 7,2 km/h N -4,0 C -2,3 C 18,1 km/h